createdAt,value
2022-09-27T00:00:34.178Z,15.40
2022-09-27T00:03:06.243Z,15.40
2022-09-27T00:05:38.556Z,15.40
2022-09-27T00:08:11.127Z,15.30
2022-09-27T00:10:43.063Z,15.20
2022-09-27T00:13:23.344Z,15.20
2022-09-27T00:16:06.707Z,15.10
2022-09-27T00:18:39.996Z,15.10
2022-09-27T00:21:14.240Z,15.10
2022-09-27T00:23:46.266Z,15.00
2022-09-27T00:26:18.383Z,14.90
2022-09-27T00:28:50.474Z,14.90
2022-09-27T00:31:29.690Z,14.80
2022-09-27T00:34:03.475Z,14.80
2022-09-27T00:36:35.514Z,14.80
2022-09-27T00:39:07.486Z,14.90
2022-09-27T00:41:39.814Z,14.90
2022-09-27T00:44:27.054Z,15.00
2022-09-27T00:47:23.391Z,15.00
2022-09-27T00:50:01.133Z,15.10
2022-09-27T00:52:46.339Z,15.10
2022-09-27T00:55:24.459Z,15.30
2022-09-27T00:57:57.108Z,15.30
2022-09-27T01:00:29.084Z,15.30
2022-09-27T01:03:05.892Z,15.30
2022-09-27T01:05:38.054Z,15.30
2022-09-27T01:08:10.164Z,15.30
2022-09-27T01:10:54.940Z,15.40
2022-09-27T01:13:51.266Z,15.50
2022-09-27T01:16:46.558Z,15.60
2022-09-27T01:19:55.873Z,15.70
2022-09-27T01:22:36.129Z,15.80
2022-09-27T01:25:29.400Z,15.60
2022-09-27T01:28:24.518Z,15.60
2022-09-27T01:31:05.617Z,15.50
2022-09-27T01:33:48.887Z,15.40
2022-09-27T01:36:38.495Z,15.30
2022-09-27T01:39:32.993Z,15.30
2022-09-27T01:42:41.402Z,15.30
2022-09-27T01:45:26.083Z,15.20
2022-09-27T01:48:25.775Z,15.20
2022-09-27T01:51:21.290Z,15.20
2022-09-27T01:53:58.591Z,15.30
2022-09-27T01:56:59.696Z,15.30
2022-09-27T01:59:54.595Z,15.30
2022-09-27T02:02:51.862Z,15.50
2022-09-27T02:05:47.088Z,15.40
2022-09-27T02:09:14.118Z,15.30
2022-09-27T02:12:07.201Z,15.30
2022-09-27T02:14:55.555Z,15.20
2022-09-27T02:17:38.493Z,15.10
2022-09-27T02:20:29.272Z,15.10
2022-09-27T02:23:23.801Z,15.00
2022-09-27T02:26:22.371Z,15.00
2022-09-27T02:29:09.394Z,15.10
2022-09-27T02:31:49.978Z,15.10
2022-09-27T02:34:29.692Z,15.10
2022-09-27T02:37:02.212Z,15.20
2022-09-27T02:39:34.383Z,15.30
2022-09-27T02:42:10.626Z,15.30
2022-09-27T02:44:45.098Z,15.20
2022-09-27T02:47:50.149Z,15.20
2022-09-27T02:50:49.889Z,15.10
2022-09-27T02:53:53.460Z,15.00
2022-09-27T02:57:02.419Z,15.00
2022-09-27T03:00:18.109Z,15.00
2022-09-27T03:03:35.642Z,14.90
2022-09-27T03:06:18.555Z,14.90
2022-09-27T03:08:51.324Z,14.90
2022-09-27T03:11:23.388Z,15.00
2022-09-27T03:14:08.546Z,14.90
2022-09-27T03:16:47.369Z,14.90
2022-09-27T03:19:39.365Z,15.00
2022-09-27T03:22:29.815Z,14.90
2022-09-27T03:25:02.154Z,14.90
2022-09-27T03:27:34.214Z,15.00
2022-09-27T03:30:07.672Z,15.00
2022-09-27T03:32:45.551Z,15.10
2022-09-27T03:35:37.031Z,15.00
2022-09-27T03:38:10.795Z,15.00
2022-09-27T03:40:42.839Z,15.10
2022-09-27T03:43:16.112Z,15.10
2022-09-27T03:45:50.705Z,15.10
2022-09-27T03:48:27.787Z,15.10
2022-09-27T03:51:00.179Z,15.20
2022-09-27T03:53:32.355Z,15.10
2022-09-27T03:56:04.455Z,15.10
2022-09-27T03:58:37.159Z,15.10
2022-09-27T04:01:09.931Z,15.00
2022-09-27T04:03:44.184Z,15.00
2022-09-27T04:06:31.951Z,15.00
2022-09-27T04:09:04.939Z,15.00
2022-09-27T04:11:56.847Z,15.10
2022-09-27T04:14:29.025Z,15.00
2022-09-27T04:17:25.717Z,15.00
2022-09-27T04:20:20.478Z,14.90
2022-09-27T04:22:52.463Z,14.90
2022-09-27T04:25:25.460Z,14.80
2022-09-27T04:28:02.194Z,14.80
2022-09-27T04:30:35.021Z,14.80
2022-09-27T04:33:18.995Z,14.80
2022-09-27T04:36:27.305Z,14.80
2022-09-27T04:39:12.205Z,14.80
2022-09-27T04:41:47.358Z,14.80
2022-09-27T04:44:19.950Z,14.80
2022-09-27T04:46:56.148Z,14.70
2022-09-27T04:49:28.259Z,14.80
2022-09-27T04:52:00.318Z,14.80
2022-09-27T04:54:32.765Z,14.80
2022-09-27T04:57:14.658Z,14.80
2022-09-27T04:59:47.745Z,14.80
2022-09-27T05:02:19.992Z,14.90
2022-09-27T05:05:16.204Z,14.90
2022-09-27T05:07:51.225Z,14.90
2022-09-27T05:10:34.790Z,14.90
2022-09-27T05:13:06.808Z,14.80
2022-09-27T05:15:39.629Z,14.80
2022-09-27T05:18:43.319Z,14.80
2022-09-27T05:21:38.410Z,14.80
2022-09-27T05:24:10.526Z,14.90
2022-09-27T05:26:42.841Z,15.00
2022-09-27T05:29:15.132Z,15.10
2022-09-27T05:31:53.787Z,15.10
2022-09-27T05:34:25.756Z,15.20
2022-09-27T05:37:03.578Z,15.30
2022-09-27T05:39:40.996Z,15.30
2022-09-27T05:42:15.429Z,15.30
2022-09-27T05:44:47.662Z,15.30
2022-09-27T05:47:20.744Z,15.20
2022-09-27T05:49:53.937Z,15.20
2022-09-27T05:52:26.525Z,15.30
2022-09-27T05:54:58.813Z,15.20
2022-09-27T05:57:30.757Z,15.20
2022-09-27T06:00:09.897Z,15.20
2022-09-27T06:02:44.591Z,15.10
2022-09-27T06:05:51.195Z,15.10
2022-09-27T06:08:42.517Z,15.10
2022-09-27T06:11:18.316Z,15.20
2022-09-27T06:13:51.370Z,15.40
2022-09-27T06:16:24.295Z,15.40
2022-09-27T06:18:57.118Z,15.40
2022-09-27T06:21:29.806Z,15.40
2022-09-27T06:24:03.209Z,15.50
2022-09-27T06:26:40.111Z,15.60
2022-09-27T06:29:35.296Z,15.50
2022-09-27T06:32:09.327Z,15.30
2022-09-27T06:34:47.365Z,15.10
2022-09-27T06:37:19.416Z,14.80
2022-09-27T06:39:53.094Z,14.40
2022-09-27T06:42:45.022Z,14.10
2022-09-27T06:45:23.887Z,13.90
2022-09-27T06:48:15.810Z,13.80
2022-09-27T06:50:58.733Z,14.00
2022-09-27T06:53:30.845Z,14.10
2022-09-27T06:56:03.206Z,14.10
2022-09-27T06:59:04.746Z,14.10
2022-09-27T07:01:52.849Z,14.10
2022-09-27T07:04:43.894Z,14.50
2022-09-27T07:07:42.991Z,15.10
2022-09-27T07:10:18.154Z,15.50
2022-09-27T07:12:50.146Z,15.50
2022-09-27T07:15:23.325Z,15.60
2022-09-27T07:18:01.357Z,15.60
2022-09-27T07:20:37.299Z,15.50
2022-09-27T07:23:10.861Z,15.40
2022-09-27T07:25:43.463Z,15.70
2022-09-27T07:28:21.808Z,16.40
2022-09-27T07:30:58.304Z,16.90
2022-09-27T07:33:31.705Z,17.60
2022-09-27T07:36:11.555Z,18.40
2022-09-27T07:38:46.353Z,18.90
2022-09-27T07:41:19.556Z,19.50
2022-09-27T07:43:51.496Z,19.90
2022-09-27T07:46:26.121Z,20.30
2022-09-27T07:49:10.067Z,20.60
2022-09-27T07:51:59.839Z,20.90
2022-09-27T07:55:11.515Z,21.00
2022-09-27T07:58:04.573Z,20.80
2022-09-27T08:00:37.685Z,21.00
2022-09-27T08:03:17.722Z,21.30
2022-09-27T08:05:51.161Z,21.30
2022-09-27T08:08:24.270Z,21.20
2022-09-27T08:10:58.804Z,21.10
2022-09-27T08:13:30.961Z,21.00
2022-09-27T08:16:03.422Z,21.20
2022-09-27T08:18:46.494Z,21.40
2022-09-27T08:21:44.636Z,21.30
2022-09-27T08:24:21.233Z,20.90
2022-09-27T08:27:17.081Z,20.50
2022-09-27T08:29:54.226Z,20.20
2022-09-27T08:32:28.829Z,19.90
2022-09-27T08:35:00.802Z,19.70
2022-09-27T08:37:33.640Z,19.60
2022-09-27T08:40:07.049Z,19.50
2022-09-27T08:43:00.054Z,19.50
2022-09-27T08:46:18.907Z,19.40
2022-09-27T08:48:58.070Z,19.30
2022-09-27T08:51:32.984Z,19.30
2022-09-27T08:54:21.226Z,19.30
2022-09-27T08:57:05.091Z,19.60
2022-09-27T09:00:00.191Z,19.90
2022-09-27T09:02:32.777Z,20.30
2022-09-27T09:05:29.004Z,20.50
2022-09-27T09:08:18.964Z,21.10
2022-09-27T09:11:33.231Z,21.40
2022-09-27T09:14:22.155Z,21.60
2022-09-27T09:17:14.143Z,21.90
2022-09-27T09:20:27.301Z,22.30
2022-09-27T09:23:40.700Z,22.00
2022-09-27T09:26:30.558Z,21.90
2022-09-27T09:29:45.155Z,21.80
2022-09-27T09:32:36.224Z,22.20
2022-09-27T09:35:15.448Z,22.70
2022-09-27T09:37:55.676Z,22.90
2022-09-27T09:40:53.467Z,22.20
2022-09-27T09:43:32.886Z,22.30
2022-09-27T09:46:25.547Z,22.80
2022-09-27T09:49:01.022Z,23.10
2022-09-27T09:51:40.871Z,22.60
2022-09-27T09:54:22.036Z,22.10
2022-09-27T09:57:09.037Z,22.10
2022-09-27T09:59:55.432Z,22.30
2022-09-27T10:02:40.635Z,22.80
2022-09-27T10:05:21.416Z,23.40
2022-09-27T10:08:05.231Z,23.60
2022-09-27T10:10:37.608Z,23.90
2022-09-27T10:13:44.980Z,24.10
2022-09-27T10:16:19.868Z,24.60
2022-09-27T10:18:58.099Z,24.50
2022-09-27T10:21:30.920Z,24.40
2022-09-27T10:24:18.503Z,24.10
2022-09-27T10:27:08.339Z,24.00
2022-09-27T10:29:41.963Z,23.80
2022-09-27T10:32:36.278Z,23.50
2022-09-27T10:35:41.779Z,23.40
2022-09-27T10:38:17.064Z,23.00
2022-09-27T10:40:51.149Z,22.80
2022-09-27T10:43:35.341Z,23.10
2022-09-27T10:46:27.319Z,23.30
2022-09-27T10:49:16.732Z,23.30
2022-09-27T10:51:55.492Z,23.20
2022-09-27T10:54:31.034Z,23.20
2022-09-27T10:57:06.538Z,23.10
2022-09-27T10:59:41.558Z,22.90
2022-09-27T11:02:22.903Z,22.70
2022-09-27T11:05:16.166Z,22.70
2022-09-27T11:07:54.498Z,22.50
2022-09-27T11:10:38.003Z,22.50
2022-09-27T11:13:14.343Z,22.10
2022-09-27T11:16:15.611Z,21.90
2022-09-27T11:19:15.433Z,22.10
2022-09-27T11:22:23.741Z,22.20
2022-09-27T11:25:12.893Z,22.30
2022-09-27T11:28:05.203Z,22.10
2022-09-27T11:31:09.073Z,22.00
2022-09-27T11:34:11.600Z,21.80
2022-09-27T11:37:14.726Z,21.60
2022-09-27T11:40:12.006Z,21.40
2022-09-27T11:42:56.535Z,21.40
2022-09-27T11:46:13.370Z,21.40
2022-09-27T11:49:01.835Z,21.40
2022-09-27T11:52:11.429Z,21.50
2022-09-27T11:55:08.946Z,21.60
2022-09-27T11:58:12.898Z,21.80
2022-09-27T12:01:22.791Z,21.90
2022-09-27T12:04:16.423Z,21.70
2022-09-27T12:07:04.632Z,21.70
2022-09-27T12:09:46.006Z,21.90
2022-09-27T12:12:29.467Z,22.20
2022-09-27T12:15:13.263Z,22.50
2022-09-27T12:17:56.945Z,22.50
2022-09-27T12:20:35.084Z,22.50
2022-09-27T12:23:21.313Z,22.50
2022-09-27T12:26:39.869Z,22.40
2022-09-27T12:29:15.195Z,22.20
2022-09-27T12:32:09.568Z,22.20
2022-09-27T12:35:03.748Z,22.30
2022-09-27T12:37:41.105Z,22.40
2022-09-27T12:40:24.118Z,22.50
2022-09-27T12:43:17.999Z,22.60
2022-09-27T12:46:18.976Z,22.60
2022-09-27T12:49:06.778Z,22.60
2022-09-27T12:51:52.557Z,22.40
2022-09-27T12:54:40.496Z,22.20
2022-09-27T12:57:31.191Z,22.00
2022-09-27T13:00:06.357Z,22.20
2022-09-27T13:03:14.769Z,22.40
2022-09-27T13:05:52.131Z,22.60
2022-09-27T13:09:18.080Z,22.60
2022-09-27T13:11:56.803Z,22.70
2022-09-27T13:14:34.484Z,22.80
2022-09-27T13:17:06.737Z,22.90
2022-09-27T13:19:45.626Z,22.80
2022-09-27T13:22:40.823Z,22.70
2022-09-27T13:25:56.305Z,22.60
2022-09-27T13:28:48.614Z,22.60
2022-09-27T13:31:55.187Z,22.60
2022-09-27T13:34:48.143Z,22.60
2022-09-27T13:37:27.482Z,22.70
2022-09-27T13:40:30.567Z,22.80
2022-09-27T13:44:07.385Z,22.80
2022-09-27T13:47:45.792Z,22.80
2022-09-27T13:50:39.117Z,22.80
2022-09-27T13:53:34.532Z,22.80
2022-09-27T13:56:30.650Z,22.90
2022-09-27T13:59:16.434Z,23.10
2022-09-27T14:01:56.462Z,23.20
2022-09-27T14:04:46.301Z,23.30
2022-09-27T14:07:22.819Z,23.40
2022-09-27T14:10:01.742Z,23.40
2022-09-27T14:12:39.958Z,23.20
2022-09-27T14:15:34.111Z,23.20
2022-09-27T14:18:14.826Z,23.00
2022-09-27T14:20:52.282Z,23.00
2022-09-27T14:23:51.072Z,23.10
2022-09-27T14:26:26.218Z,23.10
2022-09-27T14:28:58.730Z,23.10
2022-09-27T14:31:35.109Z,23.10
2022-09-27T14:34:11.242Z,23.20
2022-09-27T14:37:06.732Z,23.20
2022-09-27T14:39:55.051Z,23.10
2022-09-27T14:42:37.092Z,22.90
2022-09-27T14:45:23.079Z,22.80
2022-09-27T14:47:55.037Z,22.80
2022-09-27T14:50:29.710Z,22.90
2022-09-27T14:53:05.081Z,22.80
2022-09-27T14:55:37.193Z,22.70
2022-09-27T14:58:35.796Z,22.70
2022-09-27T15:01:06.969Z,22.80
2022-09-27T15:03:43.725Z,22.80
2022-09-27T15:06:17.168Z,22.90
2022-09-27T15:08:50.354Z,22.80
2022-09-27T15:11:22.538Z,22.60
2022-09-27T15:13:55.190Z,22.50
2022-09-27T15:16:27.127Z,22.40
2022-09-27T15:19:23.584Z,22.20
2022-09-27T15:21:57.406Z,22.20
2022-09-27T15:24:48.179Z,22.20
2022-09-27T15:27:25.816Z,22.10
2022-09-27T15:29:58.764Z,22.00
2022-09-27T15:32:30.901Z,21.90
2022-09-27T15:35:08.179Z,21.90
2022-09-27T15:37:40.280Z,21.80
2022-09-27T15:40:38.120Z,21.90
2022-09-27T15:43:40.071Z,21.90
2022-09-27T15:46:35.469Z,21.80
2022-09-27T15:49:30.549Z,21.70
2022-09-27T15:52:05.225Z,21.60
2022-09-27T15:54:37.338Z,21.50
2022-09-27T15:57:12.389Z,21.40
2022-09-27T15:59:44.260Z,21.50
2022-09-27T16:02:19.576Z,21.50
2022-09-27T16:04:51.468Z,21.60
2022-09-27T16:07:23.400Z,21.60
2022-09-27T16:09:55.607Z,21.60
2022-09-27T16:12:30.231Z,21.60
2022-09-27T16:15:02.039Z,21.40
2022-09-27T16:17:37.810Z,21.40
2022-09-27T16:20:25.021Z,21.20
2022-09-27T16:22:57.167Z,21.00
2022-09-27T16:25:29.039Z,20.90
2022-09-27T16:28:01.956Z,20.60
2022-09-27T16:30:33.897Z,20.40
2022-09-27T16:33:05.855Z,20.30
2022-09-27T16:35:42.906Z,20.10
2022-09-27T16:38:14.789Z,20.00
2022-09-27T16:40:46.742Z,20.00
2022-09-27T16:43:19.905Z,19.90
2022-09-27T16:45:52.033Z,19.70
2022-09-27T16:48:23.862Z,19.70
2022-09-27T16:51:18.179Z,19.70
2022-09-27T16:53:52.369Z,19.60
2022-09-27T16:56:24.973Z,19.70
2022-09-27T16:58:56.913Z,19.70
2022-09-27T17:01:28.850Z,19.80
2022-09-27T17:04:00.887Z,19.70
2022-09-27T17:06:36.350Z,19.50
2022-09-27T17:09:08.434Z,19.40
2022-09-27T17:11:40.551Z,19.30
2022-09-27T17:14:19.621Z,19.10
2022-09-27T17:16:52.576Z,19.00
2022-09-27T17:19:24.654Z,18.90
2022-09-27T17:21:56.755Z,18.90
2022-09-27T17:24:28.674Z,18.80
2022-09-27T17:27:00.940Z,18.80
2022-09-27T17:29:36.094Z,18.70
2022-09-27T17:32:08.677Z,18.60
2022-09-27T17:34:43.611Z,18.50
2022-09-27T17:37:15.946Z,18.60
2022-09-27T17:39:47.937Z,18.60
2022-09-27T17:42:20.050Z,18.60
2022-09-27T17:44:51.990Z,18.50
2022-09-27T17:47:42.460Z,18.30
2022-09-27T17:50:31.424Z,18.20
2022-09-27T17:53:03.295Z,18.10
2022-09-27T17:55:36.021Z,18.00
2022-09-27T17:58:08.850Z,18.00
2022-09-27T18:00:41.798Z,17.90
2022-09-27T18:03:14.167Z,17.80
2022-09-27T18:05:46.369Z,17.70
2022-09-27T18:08:18.156Z,17.70
2022-09-27T18:10:50.748Z,17.60
2022-09-27T18:13:23.176Z,17.60
2022-09-27T18:15:59.762Z,17.50
2022-09-27T18:18:35.758Z,17.40
2022-09-27T18:21:19.208Z,17.40
2022-09-27T18:23:52.995Z,17.30
2022-09-27T18:26:27.259Z,17.30
2022-09-27T18:29:09.797Z,17.40
2022-09-27T18:31:47.466Z,17.30
2022-09-27T18:34:20.254Z,17.40
2022-09-27T18:36:52.233Z,17.40
2022-09-27T18:39:24.116Z,17.40
2022-09-27T18:41:56.602Z,17.40
2022-09-27T18:44:28.458Z,17.40
2022-09-27T18:47:00.305Z,17.30
2022-09-27T18:49:34.195Z,17.30
2022-09-27T18:52:06.350Z,17.20
2022-09-27T18:54:40.437Z,17.20
2022-09-27T18:57:12.481Z,17.20
2022-09-27T18:59:46.239Z,17.20
2022-09-27T19:02:18.091Z,17.10
2022-09-27T19:04:50.019Z,17.10
2022-09-27T19:07:21.793Z,17.00
2022-09-27T19:09:53.671Z,17.00
2022-09-27T19:12:26.302Z,17.00
2022-09-27T19:14:58.088Z,16.90
2022-09-27T19:17:29.952Z,16.90
2022-09-27T19:20:02.054Z,16.90
2022-09-27T19:22:34.118Z,16.90
2022-09-27T19:25:06.731Z,16.80
2022-09-27T19:27:43.103Z,16.70
2022-09-27T19:30:15.356Z,16.70
2022-09-27T19:32:47.678Z,16.70
2022-09-27T19:35:19.532Z,16.70
2022-09-27T19:37:51.447Z,16.70
2022-09-27T19:40:23.344Z,16.70
2022-09-27T19:42:55.216Z,16.60
2022-09-27T19:45:27.104Z,16.60
2022-09-27T19:47:58.968Z,16.60
2022-09-27T19:50:30.801Z,16.70
2022-09-27T19:53:02.617Z,16.60
2022-09-27T19:55:34.481Z,16.50
2022-09-27T19:58:06.353Z,16.40
2022-09-27T20:00:38.167Z,16.30
2022-09-27T20:03:10.063Z,16.40
2022-09-27T20:05:41.946Z,16.50
2022-09-27T20:08:13.794Z,16.50
2022-09-27T20:11:06.531Z,16.50
2022-09-27T20:13:39.667Z,16.50
2022-09-27T20:16:15.706Z,16.50
2022-09-27T20:18:55.848Z,16.40
2022-09-27T20:21:32.424Z,16.40
2022-09-27T20:24:05.570Z,16.40
2022-09-27T20:26:38.021Z,16.40
2022-09-27T20:29:10.925Z,16.50
2022-09-27T20:32:02.890Z,16.60
2022-09-27T20:34:34.844Z,16.60
2022-09-27T20:37:07.540Z,16.40
2022-09-27T20:39:39.326Z,16.40
2022-09-27T20:42:11.226Z,16.40
2022-09-27T20:44:43.109Z,16.30
2022-09-27T20:47:14.968Z,16.30
2022-09-27T20:49:47.574Z,16.40
2022-09-27T20:52:19.822Z,16.40
2022-09-27T20:54:51.636Z,16.50
2022-09-27T20:57:46.321Z,16.60
2022-09-27T21:00:17.339Z,16.60
2022-09-27T21:02:49.310Z,16.40
2022-09-27T21:05:21.149Z,16.40
2022-09-27T21:07:54.467Z,16.40
2022-09-27T21:10:26.258Z,16.30
2022-09-27T21:12:58.654Z,16.30
2022-09-27T21:15:31.625Z,16.30
2022-09-27T21:18:03.762Z,16.30
2022-09-27T21:20:35.669Z,16.30
2022-09-27T21:23:07.584Z,16.30
2022-09-27T21:25:39.430Z,16.30
2022-09-27T21:28:11.802Z,16.30
2022-09-27T21:30:43.652Z,16.20
2022-09-27T21:33:15.552Z,16.10
2022-09-27T21:35:50.359Z,16.00
2022-09-27T21:38:22.310Z,16.00
2022-09-27T21:41:05.484Z,16.10
2022-09-27T21:43:42.350Z,16.10
2022-09-27T21:46:21.719Z,16.10
2022-09-27T21:48:56.707Z,15.90
2022-09-27T21:51:36.529Z,15.70
2022-09-27T21:54:12.289Z,15.50
2022-09-27T21:56:44.527Z,15.40
2022-09-27T21:59:18.157Z,15.40
2022-09-27T22:01:50.428Z,15.40
2022-09-27T22:04:22.340Z,15.30
2022-09-27T22:06:54.530Z,15.30
2022-09-27T22:09:26.495Z,15.30
2022-09-27T22:11:58.338Z,15.20
2022-09-27T22:14:30.230Z,15.10
2022-09-27T22:17:02.095Z,15.10
2022-09-27T22:19:33.938Z,15.00
2022-09-27T22:22:05.772Z,15.00
2022-09-27T22:24:37.559Z,15.00
2022-09-27T22:27:09.426Z,14.90
2022-09-27T22:29:41.262Z,15.00
2022-09-27T22:32:13.153Z,14.90
2022-09-27T22:34:45.021Z,14.90
2022-09-27T22:37:16.998Z,15.00
2022-09-27T22:39:48.909Z,15.10
2022-09-27T22:42:22.518Z,15.00
2022-09-27T22:44:54.379Z,15.00
2022-09-27T22:47:26.216Z,15.00
2022-09-27T22:49:58.752Z,15.00
2022-09-27T22:52:30.614Z,14.90
2022-09-27T22:55:02.446Z,14.90
2022-09-27T22:57:34.361Z,15.00
2022-09-27T23:00:07.602Z,15.10
2022-09-27T23:02:39.454Z,15.10
2022-09-27T23:05:11.270Z,15.00
2022-09-27T23:07:43.063Z,15.00
2022-09-27T23:10:15.032Z,14.90
2022-09-27T23:12:47.165Z,14.90
2022-09-27T23:15:19.094Z,14.80
2022-09-27T23:17:51.554Z,14.80
2022-09-27T23:20:23.706Z,14.80
2022-09-27T23:22:55.492Z,14.80
2022-09-27T23:25:27.364Z,14.90
2022-09-27T23:27:59.451Z,14.80
2022-09-27T23:30:31.810Z,14.80
2022-09-27T23:33:03.673Z,14.70
2022-09-27T23:35:35.449Z,14.70
2022-09-27T23:38:07.295Z,14.60
2022-09-27T23:40:39.806Z,14.60
2022-09-27T23:43:11.883Z,14.70
2022-09-27T23:45:43.847Z,14.70
2022-09-27T23:48:15.745Z,14.80
2022-09-27T23:50:48.300Z,14.70
2022-09-27T23:53:21.185Z,14.70
2022-09-27T23:56:02.622Z,14.70
2022-09-27T23:58:36.281Z,14.70
